createdAt,value
2017-08-14T00:01:08.950Z,5.40
2017-08-14T00:03:36.415Z,4.83
2017-08-14T00:06:03.882Z,6.10
2017-08-14T00:08:31.344Z,5.60
2017-08-14T00:10:58.935Z,4.50
2017-08-14T00:13:27.192Z,4.30
2017-08-14T00:15:54.692Z,4.83
2017-08-14T00:18:22.155Z,4.87
2017-08-14T00:20:49.628Z,4.40
2017-08-14T00:23:17.116Z,6.40
2017-08-14T00:25:44.585Z,4.87
2017-08-14T00:28:12.811Z,5.13
2017-08-14T00:30:40.287Z,5.00
2017-08-14T00:33:07.772Z,4.97
2017-08-14T00:35:35.228Z,4.50
2017-08-14T00:38:02.687Z,4.20
2017-08-14T00:40:30.165Z,4.40
2017-08-14T00:42:58.399Z,4.77
2017-08-14T00:45:25.873Z,4.10
2017-08-14T00:47:53.335Z,4.97
2017-08-14T00:50:20.804Z,4.30
2017-08-14T00:52:48.263Z,4.50
2017-08-14T00:55:16.502Z,4.90
2017-08-14T00:57:43.968Z,4.73
2017-08-14T01:00:11.446Z,4.60
2017-08-14T01:02:38.963Z,4.50
2017-08-14T01:05:06.457Z,4.80
2017-08-14T01:07:33.926Z,4.80
2017-08-14T01:10:01.387Z,5.00
2017-08-14T01:12:28.855Z,4.90
2017-08-14T01:14:57.087Z,4.20
2017-08-14T01:17:24.558Z,5.23
2017-08-14T01:19:52.015Z,4.93
2017-08-14T01:22:19.481Z,4.03
2017-08-14T01:24:46.940Z,4.90
2017-08-14T01:27:15.267Z,4.77
2017-08-14T01:29:42.720Z,5.00
2017-08-14T01:32:10.190Z,4.77
2017-08-14T01:34:37.644Z,4.83
2017-08-14T01:37:05.131Z,4.23
2017-08-14T01:39:32.596Z,4.40
2017-08-14T01:42:00.079Z,4.70
2017-08-14T01:44:27.536Z,4.37
2017-08-14T01:46:55.003Z,4.80
2017-08-14T01:49:22.458Z,4.20
2017-08-14T01:51:50.695Z,4.67
2017-08-14T01:54:18.160Z,5.00
2017-08-14T01:56:45.622Z,4.27
2017-08-14T01:59:13.092Z,4.50
2017-08-14T02:01:40.554Z,4.80
2017-08-14T02:04:08.014Z,4.30
2017-08-14T02:06:35.536Z,4.70
2017-08-14T02:09:02.991Z,4.73
2017-08-14T02:11:30.451Z,4.40
2017-08-14T02:13:57.918Z,4.27
2017-08-14T02:16:25.374Z,4.60
2017-08-14T02:18:52.842Z,4.10
2017-08-14T02:21:20.298Z,4.23
2017-08-14T02:23:47.766Z,4.60
2017-08-14T02:26:15.220Z,4.20
2017-08-14T02:28:42.688Z,4.47
2017-08-14T02:31:10.153Z,4.47
2017-08-14T02:33:37.626Z,4.60
2017-08-14T02:36:05.084Z,4.00
2017-08-14T02:38:33.319Z,4.13
2017-08-14T02:41:00.786Z,4.40
2017-08-14T02:43:28.243Z,4.77
2017-08-14T02:45:55.707Z,4.97
2017-08-14T02:48:23.193Z,5.07
2017-08-14T02:50:51.422Z,4.30
2017-08-14T02:53:18.891Z,4.77
2017-08-14T02:55:46.351Z,4.20
2017-08-14T02:58:13.806Z,4.50
2017-08-14T03:00:41.276Z,3.60
2017-08-14T03:03:08.735Z,4.10
2017-08-14T03:05:36.206Z,4.87
2017-08-14T03:08:03.668Z,3.90
2017-08-14T03:10:31.904Z,4.70
2017-08-14T03:12:59.378Z,5.10
2017-08-14T03:15:26.851Z,4.50
2017-08-14T03:17:54.307Z,4.20
2017-08-14T03:20:21.774Z,4.50
2017-08-14T03:22:49.997Z,4.13
2017-08-14T03:25:17.462Z,3.83
2017-08-14T03:27:44.918Z,4.90
2017-08-14T03:30:12.395Z,4.87
2017-08-14T03:32:39.859Z,4.70
2017-08-14T03:35:07.334Z,4.87
2017-08-14T03:37:35.560Z,4.50
2017-08-14T03:40:03.017Z,3.80
2017-08-14T03:42:30.480Z,4.17
2017-08-14T03:44:57.998Z,4.17
2017-08-14T03:47:26.235Z,4.57
2017-08-14T03:49:53.686Z,5.33
2017-08-14T03:52:21.155Z,4.87
2017-08-14T03:54:48.622Z,5.40
2017-08-14T03:57:16.083Z,4.67
2017-08-14T03:59:43.546Z,4.60
2017-08-14T04:02:11.012Z,4.20
2017-08-14T04:04:39.243Z,4.57
2017-08-14T04:07:06.715Z,4.60
2017-08-14T04:09:34.174Z,4.20
2017-08-14T04:12:01.649Z,4.90
2017-08-14T04:14:29.103Z,4.27
2017-08-14T04:16:56.937Z,5.37
2017-08-14T04:19:24.399Z,4.60
2017-08-14T04:21:51.875Z,5.50
2017-08-14T04:24:19.375Z,4.73
2017-08-14T04:26:47.606Z,4.63
2017-08-14T04:29:15.063Z,4.40
2017-08-14T04:31:42.547Z,4.60
2017-08-14T04:34:10.007Z,4.30
2017-08-14T04:36:38.239Z,4.57
2017-08-14T04:39:05.712Z,4.90
2017-08-14T04:41:33.179Z,5.00
2017-08-14T04:44:00.644Z,5.70
2017-08-14T04:46:28.105Z,6.00
2017-08-14T04:48:55.566Z,6.60
2017-08-14T04:51:23.039Z,6.83
2017-08-14T04:53:51.271Z,6.83
2017-08-14T04:56:20.265Z,6.50
2017-08-14T04:58:47.735Z,6.83
2017-08-14T05:01:15.196Z,7.80
2017-08-14T05:03:42.663Z,8.13
2017-08-14T05:06:10.131Z,8.03
2017-08-14T05:08:37.592Z,8.43
2017-08-14T05:11:05.048Z,7.00
2017-08-14T05:13:32.510Z,7.80
2017-08-14T05:15:59.980Z,7.93
2017-08-14T05:18:28.216Z,7.70
2017-08-14T05:20:55.740Z,6.60
2017-08-14T05:23:23.305Z,6.87
2017-08-14T05:25:50.768Z,6.70
2017-08-14T05:28:18.227Z,6.83
2017-08-14T05:30:45.699Z,6.93
2017-08-14T05:33:13.159Z,7.30
2017-08-14T05:35:40.622Z,7.63
2017-08-14T05:38:08.084Z,7.63
2017-08-14T05:40:35.556Z,8.10
2017-08-14T05:43:03.018Z,6.10
2017-08-14T05:45:30.489Z,7.10
2017-08-14T05:47:58.739Z,10.10
2017-08-14T05:50:26.206Z,8.43
2017-08-14T05:52:53.668Z,8.00
2017-08-14T05:55:21.146Z,9.37
2017-08-14T05:57:49.371Z,9.77
2017-08-14T06:00:16.838Z,10.33
2017-08-14T06:02:44.327Z,9.60
2017-08-14T06:05:12.599Z,12.60
2017-08-14T06:07:40.076Z,12.97
2017-08-14T06:10:08.331Z,12.00
2017-08-14T06:12:35.794Z,11.27
2017-08-14T06:15:03.279Z,12.10
2017-08-14T06:17:30.738Z,11.67
2017-08-14T06:19:58.219Z,12.80
2017-08-14T06:22:25.690Z,12.60
2017-08-14T06:24:53.169Z,12.33
2017-08-14T06:27:20.631Z,13.23
2017-08-14T06:29:48.115Z,13.00
2017-08-14T06:32:16.351Z,11.97
2017-08-14T06:34:43.819Z,12.73
2017-08-14T06:37:11.292Z,13.40
2017-08-14T06:39:38.767Z,12.83
2017-08-14T06:42:07.006Z,13.10
2017-08-14T06:44:34.484Z,12.93
2017-08-14T06:47:01.948Z,11.90
2017-08-14T06:49:30.187Z,13.07
2017-08-14T06:52:07.529Z,12.20
2017-08-14T06:54:35.003Z,14.30
2017-08-14T06:57:02.468Z,10.83
2017-08-14T06:59:29.939Z,10.50
2017-08-14T07:01:57.414Z,12.43
2017-08-14T07:04:24.884Z,10.60
2017-08-14T07:06:52.373Z,10.30
2017-08-14T07:09:20.610Z,10.47
2017-08-14T07:11:48.082Z,10.33
2017-08-14T07:14:15.547Z,9.77
2017-08-14T07:16:43.033Z,9.30
2017-08-14T07:19:11.641Z,10.67
2017-08-14T07:21:39.107Z,9.43
2017-08-14T07:24:06.586Z,9.03
2017-08-14T07:26:34.056Z,10.23
2017-08-14T07:29:01.526Z,9.80
2017-08-14T07:31:28.995Z,7.70
2017-08-14T07:33:57.235Z,8.40
2017-08-14T07:36:24.703Z,7.10
2017-08-14T07:38:52.159Z,7.13
2017-08-14T07:41:19.637Z,6.50
2017-08-14T07:43:47.086Z,6.33
2017-08-14T07:46:14.554Z,5.60
2017-08-14T07:48:42.791Z,4.50
2017-08-14T07:51:10.265Z,4.23
2017-08-14T07:53:37.723Z,4.80
2017-08-14T07:56:05.193Z,5.50
2017-08-14T07:58:32.655Z,4.20
2017-08-14T08:01:00.122Z,5.10
2017-08-14T08:03:27.578Z,5.30
2017-08-14T08:05:55.038Z,5.20
2017-08-14T08:08:23.267Z,5.60
2017-08-14T08:10:50.760Z,6.00
2017-08-14T08:13:18.215Z,5.23
2017-08-14T08:15:45.671Z,5.70
2017-08-14T08:18:13.141Z,5.80
2017-08-14T08:20:40.628Z,6.50
2017-08-14T08:23:08.101Z,6.17
2017-08-14T08:25:35.566Z,4.83
2017-08-14T08:28:03.034Z,5.00
2017-08-14T08:30:30.499Z,4.97
2017-08-14T08:32:57.967Z,4.87
2017-08-14T08:35:25.424Z,5.17
2017-08-14T08:37:52.887Z,4.70
2017-08-14T08:40:20.354Z,4.60
2017-08-14T08:42:47.821Z,6.50
2017-08-14T08:45:15.279Z,4.87
2017-08-14T08:47:42.770Z,3.60
2017-08-14T08:50:10.660Z,3.93
2017-08-14T08:52:38.122Z,3.33
2017-08-14T08:55:05.592Z,3.80
2017-08-14T08:57:33.056Z,3.87
2017-08-14T09:00:00.520Z,3.50
2017-08-14T09:02:27.990Z,4.10
2017-08-14T09:04:55.451Z,3.50
2017-08-14T09:07:22.923Z,3.30
2017-08-14T09:09:51.155Z,5.00
2017-08-14T09:12:18.623Z,3.77
2017-08-14T09:14:46.079Z,3.90
2017-08-14T09:17:13.555Z,3.10
2017-08-14T09:19:41.012Z,3.43
2017-08-14T09:22:08.493Z,2.87
2017-08-14T09:24:35.949Z,3.30
2017-08-14T09:27:04.680Z,3.70
2017-08-14T09:29:32.141Z,3.70
2017-08-14T09:31:59.602Z,3.00
2017-08-14T09:34:27.067Z,3.40
2017-08-14T09:37:00.960Z,3.30
2017-08-14T09:39:28.430Z,3.20
2017-08-14T09:41:55.884Z,3.33
2017-08-14T09:44:23.357Z,3.13
2017-08-14T09:46:50.815Z,3.10
2017-08-14T09:49:18.291Z,3.50
2017-08-14T09:51:45.755Z,2.87
2017-08-14T09:54:13.220Z,2.77
2017-08-14T09:56:40.702Z,2.77
2017-08-14T09:59:08.185Z,3.67
2017-08-14T10:01:35.633Z,4.00
2017-08-14T10:04:03.104Z,3.40
2017-08-14T10:06:30.558Z,3.50
2017-08-14T10:08:58.034Z,3.37
2017-08-14T10:11:25.495Z,3.63
2017-08-14T10:13:52.958Z,3.70
2017-08-14T10:16:20.423Z,2.93
2017-08-14T10:18:47.942Z,3.27
2017-08-14T10:21:15.404Z,2.97
2017-08-14T10:23:42.871Z,3.10
2017-08-14T10:26:10.331Z,2.90
2017-08-14T10:28:37.875Z,2.50
2017-08-14T10:31:05.330Z,2.50
2017-08-14T10:33:32.799Z,3.10
2017-08-14T10:36:00.264Z,3.60
2017-08-14T10:38:27.741Z,3.57
2017-08-14T10:40:55.196Z,3.40
2017-08-14T10:43:22.663Z,3.17
2017-08-14T10:45:50.131Z,2.80
2017-08-14T10:48:17.579Z,2.37
2017-08-14T10:50:45.047Z,3.67
2017-08-14T10:53:12.552Z,3.50
2017-08-14T10:55:40.123Z,3.83
2017-08-14T10:58:07.583Z,2.67
2017-08-14T11:00:35.047Z,3.20
2017-08-14T11:03:02.511Z,3.40
2017-08-14T11:05:29.974Z,3.03
2017-08-14T11:07:57.444Z,4.50
2017-08-14T11:10:24.912Z,3.00
2017-08-14T11:12:52.367Z,3.20
2017-08-14T11:15:19.835Z,3.40
2017-08-14T11:17:47.376Z,3.53
2017-08-14T11:20:14.878Z,2.80
2017-08-14T11:22:43.116Z,3.83
2017-08-14T11:25:10.639Z,3.30
2017-08-14T11:27:38.516Z,3.00
2017-08-14T11:30:05.973Z,2.60
2017-08-14T11:32:33.436Z,2.30
2017-08-14T11:35:00.916Z,3.17
2017-08-14T11:37:28.378Z,3.00
2017-08-14T11:39:55.834Z,2.70
2017-08-14T11:42:23.316Z,3.00
2017-08-14T11:44:50.774Z,2.93
2017-08-14T11:47:18.245Z,3.00
2017-08-14T11:49:46.466Z,3.17
2017-08-14T11:52:13.943Z,3.17
2017-08-14T11:54:41.407Z,3.00
2017-08-14T11:57:08.887Z,2.73
2017-08-14T11:59:36.348Z,3.13
2017-08-14T12:02:03.808Z,3.60
2017-08-14T12:04:32.050Z,2.63
2017-08-14T12:06:59.518Z,3.00
2017-08-14T12:09:26.974Z,2.70
2017-08-14T12:11:54.447Z,3.00
2017-08-14T12:14:21.908Z,2.53
2017-08-14T12:16:49.375Z,2.60
2017-08-14T12:19:17.608Z,2.50
2017-08-14T12:21:45.076Z,3.10
2017-08-14T12:24:12.538Z,2.30
2017-08-14T12:26:40.011Z,2.83
2017-08-14T12:29:07.484Z,2.47
2017-08-14T12:31:34.939Z,3.03
2017-08-14T12:34:02.396Z,2.30
2017-08-14T12:36:29.863Z,2.50
2017-08-14T12:38:58.086Z,2.53
2017-08-14T12:41:25.556Z,3.33
2017-08-14T12:43:53.015Z,3.20
2017-08-14T12:46:20.489Z,3.17
2017-08-14T12:48:47.947Z,2.80
2017-08-14T12:51:16.032Z,3.33
2017-08-14T12:53:43.486Z,3.10
2017-08-14T12:56:10.966Z,2.90
2017-08-14T12:58:39.196Z,2.80
2017-08-14T13:01:06.651Z,3.13
2017-08-14T13:03:34.133Z,3.53
2017-08-14T13:06:01.596Z,3.00
2017-08-14T13:08:29.063Z,2.80
2017-08-14T13:10:56.524Z,2.70
2017-08-14T13:13:23.990Z,2.50
2017-08-14T13:15:52.210Z,4.90
2017-08-14T13:18:19.679Z,3.57
2017-08-14T13:20:47.171Z,3.20
2017-08-14T13:23:14.643Z,2.33
2017-08-14T13:25:42.872Z,3.10
2017-08-14T13:28:10.331Z,2.87
2017-08-14T13:30:37.799Z,4.10
2017-08-14T13:33:05.276Z,2.93
2017-08-14T13:35:32.749Z,3.20
2017-08-14T13:38:00.214Z,2.60
2017-08-14T13:40:27.683Z,3.43
2017-08-14T13:42:55.146Z,2.73
2017-08-14T13:45:22.621Z,3.20
2017-08-14T13:47:50.083Z,3.40
2017-08-14T13:50:17.562Z,3.23
2017-08-14T13:52:45.039Z,3.50
2017-08-14T13:55:12.516Z,3.40
2017-08-14T13:57:40.739Z,3.10
2017-08-14T14:00:08.227Z,2.90
2017-08-14T14:02:35.674Z,3.20
2017-08-14T14:05:03.144Z,3.10
2017-08-14T14:07:30.598Z,3.77
2017-08-14T14:09:58.091Z,2.37
2017-08-14T14:12:26.321Z,3.57
2017-08-14T14:14:53.871Z,3.33
2017-08-14T14:17:21.376Z,3.53
2017-08-14T14:19:48.866Z,4.33
2017-08-14T14:22:16.958Z,3.97
2017-08-14T14:24:44.444Z,3.37
2017-08-14T14:27:11.907Z,3.43
2017-08-14T14:29:39.462Z,3.27
2017-08-14T14:32:06.986Z,3.90
2017-08-14T14:34:34.541Z,4.00
2017-08-14T14:37:02.015Z,2.90
2017-08-14T14:39:29.475Z,3.27
2017-08-14T14:41:56.955Z,3.43
2017-08-14T14:44:24.417Z,3.67
2017-08-14T14:46:51.886Z,3.40
2017-08-14T14:49:19.937Z,2.83
2017-08-14T14:51:47.408Z,3.20
2017-08-14T14:54:14.866Z,3.03
2017-08-14T14:56:42.339Z,3.47
2017-08-14T14:59:09.897Z,2.93
2017-08-14T15:01:37.363Z,3.67
2017-08-14T15:04:05.663Z,2.90
2017-08-14T15:06:33.895Z,3.00
2017-08-14T15:09:01.352Z,3.47
2017-08-14T15:11:28.811Z,3.63
2017-08-14T15:13:56.293Z,3.50
2017-08-14T15:16:23.765Z,3.37
2017-08-14T15:18:52.003Z,3.70
2017-08-14T15:21:19.472Z,3.90
2017-08-14T15:23:46.939Z,4.07
2017-08-14T15:26:14.409Z,3.70
2017-08-14T15:28:42.657Z,4.33
2017-08-14T15:31:10.123Z,3.97
2017-08-14T15:33:37.687Z,3.10
2017-08-14T15:36:05.163Z,3.73
2017-08-14T15:38:33.417Z,4.20
2017-08-14T15:41:01.678Z,3.60
2017-08-14T15:43:29.143Z,3.87
2017-08-14T15:45:56.625Z,4.20
2017-08-14T15:48:24.918Z,3.70
2017-08-14T15:50:53.143Z,4.33
2017-08-14T15:53:21.636Z,6.87
2017-08-14T15:55:49.121Z,5.90
2017-08-14T15:58:17.461Z,4.10
2017-08-14T16:00:44.930Z,4.27
2017-08-14T16:03:12.397Z,4.30
2017-08-14T16:05:39.955Z,4.80
2017-08-14T16:08:07.418Z,4.43
2017-08-14T16:10:35.443Z,4.23
2017-08-14T16:13:02.905Z,5.00
2017-08-14T16:15:30.371Z,4.20
2017-08-14T16:17:57.826Z,4.70
2017-08-14T16:20:25.298Z,4.97
2017-08-14T16:22:52.754Z,4.70
2017-08-14T16:25:20.230Z,4.90
2017-08-14T16:27:47.695Z,4.77
2017-08-14T16:30:21.427Z,4.63
2017-08-14T16:32:49.657Z,5.00
2017-08-14T16:35:17.227Z,4.60
2017-08-14T16:37:44.678Z,5.20
2017-08-14T16:40:12.330Z,4.30
2017-08-14T16:42:39.809Z,5.17
2017-08-14T16:45:07.282Z,5.70
2017-08-14T16:47:34.746Z,5.40
2017-08-14T16:50:02.297Z,5.07
2017-08-14T16:52:29.751Z,4.97
2017-08-14T16:54:57.215Z,4.90
2017-08-14T16:57:24.683Z,5.20
2017-08-14T16:59:52.173Z,5.50
2017-08-14T17:02:19.719Z,4.60
2017-08-14T17:04:47.955Z,5.47
2017-08-14T17:07:15.419Z,5.03
2017-08-14T17:09:42.877Z,4.87
2017-08-14T17:12:10.339Z,6.77
2017-08-14T17:14:37.799Z,5.30
2017-08-14T17:17:05.276Z,5.20
2017-08-14T17:19:33.534Z,4.90
2017-08-14T17:22:01.057Z,5.30
2017-08-14T17:24:29.830Z,5.10
2017-08-14T17:26:57.350Z,5.50
2017-08-14T17:29:24.860Z,4.90
2017-08-14T17:31:52.371Z,5.00
2017-08-14T17:34:19.823Z,4.50
2017-08-14T17:36:47.299Z,5.87
2017-08-14T17:39:16.031Z,5.57
2017-08-14T17:41:43.503Z,5.00
2017-08-14T17:44:10.969Z,5.07
2017-08-14T17:46:38.497Z,5.10
2017-08-14T17:49:05.977Z,5.27
2017-08-14T17:51:33.431Z,4.87
2017-08-14T17:54:00.906Z,4.90
2017-08-14T17:56:28.904Z,5.10
2017-08-14T17:58:57.190Z,5.20
2017-08-14T18:01:25.424Z,3.97
2017-08-14T18:03:52.965Z,4.47
2017-08-14T18:06:21.029Z,4.47
2017-08-14T18:08:48.552Z,4.93
2017-08-14T18:11:16.775Z,4.47
2017-08-14T18:13:44.965Z,4.43
2017-08-14T18:16:12.447Z,4.40
2017-08-14T18:18:39.914Z,3.53
2017-08-14T18:21:07.382Z,3.57
2017-08-14T18:23:35.706Z,4.10
2017-08-14T18:26:03.171Z,3.33
2017-08-14T18:28:30.851Z,4.20
2017-08-14T18:30:58.335Z,4.67
2017-08-14T18:33:25.804Z,4.47
2017-08-14T18:35:53.328Z,3.83
2017-08-14T18:38:21.512Z,4.40
2017-08-14T18:40:49.015Z,4.80
2017-08-14T18:43:16.485Z,4.20
2017-08-14T18:45:50.805Z,4.10
2017-08-14T18:48:18.263Z,4.50
2017-08-14T18:50:45.747Z,4.40
2017-08-14T18:53:13.245Z,4.10
2017-08-14T18:55:41.809Z,4.20
2017-08-14T18:58:09.263Z,4.40
2017-08-14T19:00:36.729Z,4.30
2017-08-14T19:03:04.191Z,4.83
2017-08-14T19:05:31.716Z,4.50
2017-08-14T19:08:01.072Z,4.90
2017-08-14T19:10:26.660Z,4.77
2017-08-14T19:12:54.952Z,4.57
2017-08-14T19:15:23.197Z,4.90
2017-08-14T19:17:50.710Z,5.40
2017-08-14T19:20:19.072Z,5.20
2017-08-14T19:22:47.303Z,4.87
2017-08-14T19:25:15.555Z,5.63
2017-08-14T19:27:43.055Z,5.57
2017-08-14T19:30:10.561Z,5.40
2017-08-14T19:32:38.027Z,4.50
2017-08-14T19:35:05.500Z,4.90
2017-08-14T19:37:32.974Z,5.00
2017-08-14T19:40:00.436Z,5.20
2017-08-14T19:42:27.910Z,5.07
2017-08-14T19:44:55.450Z,4.90
2017-08-14T19:47:22.930Z,4.77
2017-08-14T19:49:50.404Z,4.60
2017-08-14T19:52:18.644Z,4.73
2017-08-14T19:54:46.106Z,4.90
2017-08-14T19:57:14.454Z,4.50
2017-08-14T19:59:41.919Z,5.23
2017-08-14T20:02:09.443Z,4.73
2017-08-14T20:04:37.672Z,5.43
2017-08-14T20:07:05.171Z,5.70
2017-08-14T20:09:32.628Z,5.37
2017-08-14T20:12:00.895Z,5.50
2017-08-14T20:14:28.368Z,5.07
2017-08-14T20:16:56.627Z,4.60
2017-08-14T20:19:24.145Z,5.47
2017-08-14T20:21:51.727Z,6.23
2017-08-14T20:24:19.198Z,4.70
2017-08-14T20:26:46.685Z,4.70
2017-08-14T20:29:14.162Z,4.73
2017-08-14T20:31:41.633Z,4.80
2017-08-14T20:34:09.110Z,5.40
2017-08-14T20:36:37.359Z,4.90
2017-08-14T20:39:04.824Z,5.50
2017-08-14T20:41:32.904Z,4.60
2017-08-14T20:44:00.662Z,5.33
2017-08-14T20:46:28.408Z,4.57
2017-08-14T20:48:56.879Z,5.20
2017-08-14T20:51:25.106Z,5.47
2017-08-14T20:53:53.343Z,4.73
2017-08-14T20:56:20.828Z,5.43
2017-08-14T20:58:48.547Z,5.40
2017-08-14T21:01:16.736Z,5.10
2017-08-14T21:03:45.287Z,5.30
2017-08-14T21:06:12.739Z,4.90
2017-08-14T21:08:40.322Z,5.17
2017-08-14T21:11:07.810Z,4.23
2017-08-14T21:13:35.271Z,5.17
2017-08-14T21:16:02.750Z,5.13
2017-08-14T21:18:36.800Z,4.70
2017-08-14T21:21:04.287Z,5.37
2017-08-14T21:23:31.884Z,5.20
2017-08-14T21:25:59.476Z,4.57
2017-08-14T21:28:26.939Z,4.40
2017-08-14T21:30:54.420Z,3.80
2017-08-14T21:33:22.651Z,4.90
2017-08-14T21:35:50.127Z,4.60
2017-08-14T21:38:17.588Z,4.00
2017-08-14T21:40:45.678Z,4.20
2017-08-14T21:43:13.593Z,4.70
2017-08-14T21:45:41.626Z,4.37
2017-08-14T21:48:09.668Z,4.20
2017-08-14T21:50:37.769Z,4.23
2017-08-14T21:53:05.264Z,4.07
2017-08-14T21:55:33.543Z,4.13
2017-08-14T21:58:01.004Z,4.37
2017-08-14T22:00:28.476Z,4.50
2017-08-14T22:02:55.940Z,4.37
2017-08-14T22:05:23.411Z,3.73
2017-08-14T22:07:50.879Z,4.60
2017-08-14T22:10:18.360Z,3.97
2017-08-14T22:12:45.866Z,4.10
2017-08-14T22:15:14.248Z,4.27
2017-08-14T22:17:41.715Z,4.40
2017-08-14T22:20:09.195Z,4.43
2017-08-14T22:22:36.765Z,4.33
2017-08-14T22:25:05.024Z,4.00
2017-08-14T22:27:32.499Z,4.03
2017-08-14T22:30:00.735Z,4.00
2017-08-14T22:32:28.207Z,4.57
2017-08-14T22:34:55.675Z,4.50
2017-08-14T22:37:23.144Z,4.57
2017-08-14T22:39:51.383Z,5.20
2017-08-14T22:42:18.856Z,4.87
2017-08-14T22:44:46.311Z,4.27
2017-08-14T22:47:13.779Z,4.40
2017-08-14T22:49:41.234Z,4.53
2017-08-14T22:52:08.703Z,4.23
2017-08-14T22:54:36.170Z,4.17
2017-08-14T22:57:04.415Z,4.33
2017-08-14T22:59:31.879Z,4.87
2017-08-14T23:01:59.356Z,4.40
2017-08-14T23:04:26.806Z,4.53
2017-08-14T23:06:54.279Z,4.50
2017-08-14T23:09:22.510Z,4.07
2017-08-14T23:11:49.987Z,4.73
2017-08-14T23:14:17.459Z,5.10
2017-08-14T23:16:44.921Z,5.03
2017-08-14T23:19:12.399Z,4.00
2017-08-14T23:21:40.637Z,4.40
2017-08-14T23:24:08.105Z,4.40
2017-08-14T23:26:35.562Z,4.50
2017-08-14T23:29:03.034Z,4.93
2017-08-14T23:31:30.496Z,4.47
2017-08-14T23:33:58.744Z,3.63
2017-08-14T23:36:26.224Z,4.53
2017-08-14T23:38:53.694Z,4.60
2017-08-14T23:41:21.920Z,5.07
2017-08-14T23:43:49.388Z,3.67
2017-08-14T23:46:16.851Z,4.03
2017-08-14T23:48:44.332Z,4.27
2017-08-14T23:51:11.794Z,4.60
2017-08-14T23:53:39.315Z,4.47
2017-08-14T23:56:06.820Z,4.50
2017-08-14T23:58:35.079Z,4.70
